Salten — LMFM — position and weather

sailwx.info

Track history (hours):
 
Tides and Currents Weather Stations Pressure Air Temp Water Temp Dewpoint Dewpoint Depression Visibility Wind Speed Wind Dir Waves Ship Positions

Salten

Last reported at 2015-Mar-30 15:13 UTC. Time now 2015-Mar-30 16:21 UTC.
Position N 66°56' E 013°28'.

Length 41 m; draft 1.5 m.

Type: High speed craft. MMSI: 259387000.

Date/timePositionNaut miles runAvg speedWind from/ knotsBaromVisibWave heightAir tempDewpointWater temp
2015-Mar-30 15:13N 66°56' E 013°28'1623.2
2015-Mar-30 14:33N 67°07' E 013°58'1414.1
2015-Mar-30 13:33N 67°17' E 014°22'0 0.0
2015-Mar-30 12:33N 67°17' E 014°22'0 0.0
2015-Mar-30 11:33N 67°17' E 014°22'0 0.0
2015-Mar-30 10:33N 67°17' E 014°22'5 5.1
2015-Mar-30 09:33N 67°14' E 014°13'25 1.2
2015-Mar-29 12:27N 66°54' E 013°31'1719.3
2015-Mar-29 11:33N 67°08' E 013°58'1313.0
2015-Mar-29 10:33N 67°17' E 014°22'0 0.0
2015-Mar-29 09:33N 67°17' E 014°22'0 0.0
2015-Mar-29 08:33N 67°17' E 014°22'0 0.0
2015-Mar-29 07:33N 67°17' E 014°22'0 0.0
2015-Mar-29 06:33N 67°17' E 014°22'0 0.0
2015-Mar-29 05:33N 67°17' E 014°22'0 0.0
2015-Mar-29 04:33N 67°17' E 014°22'0 0.0
2015-Mar-29 03:33N 67°17' E 014°22'0 0.0
2015-Mar-29 02:33N 67°17' E 014°22'0 0.0
2015-Mar-29 01:33N 67°17' E 014°22'0 0.0
2015-Mar-29 00:33N 67°17' E 014°22'0 0.0
2015-Mar-28 23:33N 67°17' E 014°22'0 0.0
2015-Mar-28 22:33N 67°17' E 014°22'0 0.0
2015-Mar-28 21:33N 67°17' E 014°22'0 0.0
2015-Mar-28 20:33N 67°17' E 014°22'0 0.0
2015-Mar-28 19:33N 67°17' E 014°22'0 0.0
2015-Mar-28 18:33N 67°17' E 014°22'0 0.0
2015-Mar-28 17:33N 67°17' E 014°22'0 0.0
2015-Mar-28 16:33N 67°17' E 014°22'0 0.0
2015-Mar-28 15:33N 67°17' E 014°22'0 0.0
2015-Mar-28 14:33N 67°17' E 014°22'0 0.0
2015-Mar-28 13:33N 67°17' E 014°22'0 0.0
2015-Mar-28 12:33N 67°17' E 014°22'0 0.0
2015-Mar-28 11:33N 67°17' E 014°22'0 0.0
2015-Mar-28 10:33N 67°17' E 014°22'0 0.4
2015-Mar-28 09:33N 67°17' E 014°23'9 9.1
2015-Mar-28 08:32N 67°26' E 014°33'3 0.2
2015-Mar-27 17:29N 67°28' E 014°37'1313.5
2015-Mar-27 16:33N 67°17' E 014°22'2215.7
2015-Mar-27 15:08N 67°38' E 014°40'1627.4
2015-Mar-27 14:33N 67°23' E 014°26'6 6.0
2015-Mar-27 13:33N 67°17' E 014°23'0 0.3
2015-Mar-27 12:33N 67°17' E 014°22'0 0.0
2015-Mar-27 11:33N 67°17' E 014°22'0 0.0
2015-Mar-27 10:33N 67°17' E 014°22'0 0.0
2015-Mar-27 09:33N 67°17' E 014°22'1714.2
2015-Mar-27 08:21N 67°32' E 014°41'8 0.5
2015-Mar-26 17:10N 67°40' E 014°43'1727.6
2015-Mar-26 16:33N 67°25' E 014°27'8 7.7
2015-Mar-26 15:33N 67°17' E 014°22'0 0.0
2015-Mar-26 14:33N 67°17' E 014°22'1 0.8
2015-Mar-26 13:33N 67°18' E 014°24'1 0.8
2015-Mar-26 12:33N 67°17' E 014°22'1 0.8
2015-Mar-26 11:33N 67°18' E 014°24'0 0.0
2015-Mar-26 10:33N 67°18' E 014°24'1 0.8
2015-Mar-26 09:33N 67°17' E 014°22'1010.2
2015-Mar-26 08:32N 67°26' E 014°35'20 1.3
2015-Mar-25 17:30N 67°46' E 014°43'2324.0
2015-Mar-25 16:33N 67°24' E 014°31'7 7.5
2015-Mar-25 15:33N 67°17' E 014°22'0 0.0
2015-Mar-25 14:33N 67°17' E 014°22'0 0.0
2015-Mar-25 13:33N 67°17' E 014°22'0 0.0
2015-Mar-25 12:33N 67°17' E 014°22'1 0.8
2015-Mar-25 11:33N 67°18' E 014°24'1413.9
2015-Mar-25 10:33N 67°08' E 013°59'16 0.9
2015-Mar-24 16:15N 66°57' E 013°29'1723.8
2015-Mar-24 15:33N 67°07' E 014°03'1212.3
2015-Mar-24 14:33N 67°17' E 014°22'0 0.0
2015-Mar-24 13:33N 67°17' E 014°22'0 0.0
2015-Mar-24 12:33N 67°17' E 014°22'0 0.0
2015-Mar-24 11:33N 67°17' E 014°22'0 0.0
2015-Mar-24 10:33N 67°17' E 014°22'0 0.0
2015-Mar-24 09:33N 67°17' E 014°22'1817.5
2015-Mar-24 08:33N 67°33' E 014°42'2121.3
2015-Mar-24 07:34N 67°54' E 014°54'14 1.2
2015-Mar-23 19:22N 68°08' E 014°55'1417.9
2015-Mar-23 18:34N 67°57' E 015°20'2417.6
2015-Mar-23 17:11N 67°37' E 014°42'1829.2
2015-Mar-23 16:34N 67°20' E 014°26'3 3.4
2015-Mar-23 15:33N 67°17' E 014°22'0 0.0
2015-Mar-23 14:33N 67°17' E 014°22'0 0.0
2015-Mar-23 13:33N 67°17' E 014°22'0 0.0
2015-Mar-23 12:33N 67°17' E 014°22'0 0.0
2015-Mar-23 11:33N 67°17' E 014°22'0 0.0
2015-Mar-23 10:33N 67°17' E 014°22'0 0.0
2015-Mar-23 09:33N 67°17' E 014°22'1110.4
2015-Mar-23 08:33N 67°27' E 014°33'2323.5
2015-Mar-23 07:33N 67°50' E 014°45'6 0.5
2015-Mar-22 20:33N 67°44' E 014°46'2828.4
2015-Mar-22 19:33N 67°17' E 014°22'0 0.3
2015-Mar-22 18:33N 67°17' E 014°22'2221.8
2015-Mar-22 17:33N 67°38' E 014°42'37 4.0
2015-Mar-22 08:19N 68°14' E 014°34'0 0.0
2015-Mar-22 06:23N 68°14' E 014°34'0 0.0
2015-Mar-22 05:27N 68°14' E 014°34'25 2.1
2015-Mar-21 17:33N 67°50' E 014°45'2626.0
2015-Mar-21 16:33N 67°24' E 014°30'8 7.7
2015-Mar-21 15:33N 67°17' E 014°22'0 0.0
2015-Mar-21 14:33N 67°17' E 014°22'0 0.0
2015-Mar-21 13:32N 67°17' E 014°22'0 0.0
2015-Mar-21 12:33N 67°17' E 014°22'0 0.0
2015-Mar-21 11:33N 67°17' E 014°22'0 0.0
2015-Mar-21 10:33N 67°17' E 014°22'0 0.2
2015-Mar-21 09:33N 67°17' E 014°23'0 0.2
2015-Mar-21 08:33N 67°17' E 014°22'0 0.0
2015-Mar-21 07:33N 67°17' E 014°22'0 0.0
2015-Mar-21 06:32N 67°17' E 014°22'0 0.0
2015-Mar-21 05:33N 67°17' E 014°22'0 0.0
2015-Mar-21 04:33N 67°17' E 014°22'0 0.0
2015-Mar-21 03:33N 67°17' E 014°22'0 0.0
2015-Mar-21 02:33N 67°17' E 014°22'0 0.0
2015-Mar-21 01:33N 67°17' E 014°22'0 0.0
2015-Mar-21 00:33N 67°17' E 014°22'0 0.0
2015-Mar-20 23:33N 67°17' E 014°22'1 0.6
2015-Mar-20 21:33N 67°16' E 014°20'1 1.2
2015-Mar-20 20:33N 67°17' E 014°22'1814.9
2015-Mar-20 19:21N 67°33' E 014°42'2125.5
2015-Mar-20 18:31N 67°55' E 014°44'2020.6
2015-Mar-20 17:33N 68°14' E 014°35'0 0.0
2015-Mar-20 16:33N 68°14' E 014°34'0 0.0
2015-Mar-20 15:33N 68°14' E 014°35'  
Track history (hours):
 
Tides and Currents Weather Stations Pressure Air Temp Water Temp Dewpoint Dewpoint Depression Visibility Wind Speed Wind Dir Waves Ship Positions

Salten

Last reported at 2015-Mar-30 15:13 UTC. Time now 2015-Mar-30 16:21 UTC.
Position N 66°56' E 013°28'.

Length 41 m; draft 1.5 m.

Type: High speed craft. MMSI: 259387000.

Date/timePositionNaut miles runAvg speedWind from/ knotsBaromVisibWave heightAir tempDewpointWater temp
2015-Mar-30 15:13N 66°56' E 013°28'1623.2
2015-Mar-30 14:33N 67°07' E 013°58'1414.1
2015-Mar-30 13:33N 67°17' E 014°22'0 0.0
2015-Mar-30 12:33N 67°17' E 014°22'0 0.0
2015-Mar-30 11:33N 67°17' E 014°22'0 0.0
2015-Mar-30 10:33N 67°17' E 014°22'5 5.1
2015-Mar-30 09:33N 67°14' E 014°13'25 1.2
2015-Mar-29 12:27N 66°54' E 013°31'1719.3
2015-Mar-29 11:33N 67°08' E 013°58'1313.0
2015-Mar-29 10:33N 67°17' E 014°22'0 0.0
2015-Mar-29 09:33N 67°17' E 014°22'0 0.0
2015-Mar-29 08:33N 67°17' E 014°22'0 0.0
2015-Mar-29 07:33N 67°17' E 014°22'0 0.0
2015-Mar-29 06:33N 67°17' E 014°22'0 0.0
2015-Mar-29 05:33N 67°17' E 014°22'0 0.0
2015-Mar-29 04:33N 67°17' E 014°22'0 0.0
2015-Mar-29 03:33N 67°17' E 014°22'0 0.0
2015-Mar-29 02:33N 67°17' E 014°22'0 0.0
2015-Mar-29 01:33N 67°17' E 014°22'0 0.0
2015-Mar-29 00:33N 67°17' E 014°22'0 0.0
2015-Mar-28 23:33N 67°17' E 014°22'0 0.0
2015-Mar-28 22:33N 67°17' E 014°22'0 0.0
2015-Mar-28 21:33N 67°17' E 014°22'0 0.0
2015-Mar-28 20:33N 67°17' E 014°22'0 0.0
2015-Mar-28 19:33N 67°17' E 014°22'0 0.0
2015-Mar-28 18:33N 67°17' E 014°22'0 0.0
2015-Mar-28 17:33N 67°17' E 014°22'0 0.0
2015-Mar-28 16:33N 67°17' E 014°22'0 0.0
2015-Mar-28 15:33N 67°17' E 014°22'0 0.0
2015-Mar-28 14:33N 67°17' E 014°22'0 0.0
2015-Mar-28 13:33N 67°17' E 014°22'0 0.0
2015-Mar-28 12:33N 67°17' E 014°22'0 0.0
2015-Mar-28 11:33N 67°17' E 014°22'0 0.0
2015-Mar-28 10:33N 67°17' E 014°22'0 0.4
2015-Mar-28 09:33N 67°17' E 014°23'9 9.1
2015-Mar-28 08:32N 67°26' E 014°33'3 0.2
2015-Mar-27 17:29N 67°28' E 014°37'1313.5
2015-Mar-27 16:33N 67°17' E 014°22'2215.7
2015-Mar-27 15:08N 67°38' E 014°40'1627.4
2015-Mar-27 14:33N 67°23' E 014°26'6 6.0
2015-Mar-27 13:33N 67°17' E 014°23'0 0.3
2015-Mar-27 12:33N 67°17' E 014°22'0 0.0
2015-Mar-27 11:33N 67°17' E 014°22'0 0.0
2015-Mar-27 10:33N 67°17' E 014°22'0 0.0
2015-Mar-27 09:33N 67°17' E 014°22'1714.2
2015-Mar-27 08:21N 67°32' E 014°41'8 0.5
2015-Mar-26 17:10N 67°40' E 014°43'1727.6
2015-Mar-26 16:33N 67°25' E 014°27'8 7.7
2015-Mar-26 15:33N 67°17' E 014°22'0 0.0
2015-Mar-26 14:33N 67°17' E 014°22'1 0.8
2015-Mar-26 13:33N 67°18' E 014°24'1 0.8
2015-Mar-26 12:33N 67°17' E 014°22'1 0.8
2015-Mar-26 11:33N 67°18' E 014°24'0 0.0
2015-Mar-26 10:33N 67°18' E 014°24'1 0.8
2015-Mar-26 09:33N 67°17' E 014°22'1010.2
2015-Mar-26 08:32N 67°26' E 014°35'20 1.3
2015-Mar-25 17:30N 67°46' E 014°43'2324.0
2015-Mar-25 16:33N 67°24' E 014°31'7 7.5
2015-Mar-25 15:33N 67°17' E 014°22'0 0.0
2015-Mar-25 14:33N 67°17' E 014°22'0 0.0
2015-Mar-25 13:33N 67°17' E 014°22'0 0.0
2015-Mar-25 12:33N 67°17' E 014°22'1 0.8
2015-Mar-25 11:33N 67°18' E 014°24'1413.9
2015-Mar-25 10:33N 67°08' E 013°59'16 0.9
2015-Mar-24 16:15N 66°57' E 013°29'1723.8
2015-Mar-24 15:33N 67°07' E 014°03'1212.3
2015-Mar-24 14:33N 67°17' E 014°22'0 0.0
2015-Mar-24 13:33N 67°17' E 014°22'0 0.0
2015-Mar-24 12:33N 67°17' E 014°22'0 0.0
2015-Mar-24 11:33N 67°17' E 014°22'0 0.0
2015-Mar-24 10:33N 67°17' E 014°22'0 0.0
2015-Mar-24 09:33N 67°17' E 014°22'1817.5
2015-Mar-24 08:33N 67°33' E 014°42'2121.3
2015-Mar-24 07:34N 67°54' E 014°54'14 1.2
2015-Mar-23 19:22N 68°08' E 014°55'1417.9
2015-Mar-23 18:34N 67°57' E 015°20'2417.6
2015-Mar-23 17:11N 67°37' E 014°42'1829.2
2015-Mar-23 16:34N 67°20' E 014°26'3 3.4
2015-Mar-23 15:33N 67°17' E 014°22'0 0.0
2015-Mar-23 14:33N 67°17' E 014°22'0 0.0
2015-Mar-23 13:33N 67°17' E 014°22'0 0.0
2015-Mar-23 12:33N 67°17' E 014°22'0 0.0
2015-Mar-23 11:33N 67°17' E 014°22'0 0.0
2015-Mar-23 10:33N 67°17' E 014°22'0 0.0
2015-Mar-23 09:33N 67°17' E 014°22'1110.4
2015-Mar-23 08:33N 67°27' E 014°33'2323.5
2015-Mar-23 07:33N 67°50' E 014°45'6 0.5
2015-Mar-22 20:33N 67°44' E 014°46'2828.4
2015-Mar-22 19:33N 67°17' E 014°22'0 0.3
2015-Mar-22 18:33N 67°17' E 014°22'2221.8
2015-Mar-22 17:33N 67°38' E 014°42'37 4.0
2015-Mar-22 08:19N 68°14' E 014°34'0 0.0
2015-Mar-22 06:23N 68°14' E 014°34'0 0.0
2015-Mar-22 05:27N 68°14' E 014°34'25 2.1
2015-Mar-21 17:33N 67°50' E 014°45'2626.0
2015-Mar-21 16:33N 67°24' E 014°30'8 7.7
2015-Mar-21 15:33N 67°17' E 014°22'0 0.0
2015-Mar-21 14:33N 67°17' E 014°22'0 0.0
2015-Mar-21 13:32N 67°17' E 014°22'0 0.0
2015-Mar-21 12:33N 67°17' E 014°22'0 0.0
2015-Mar-21 11:33N 67°17' E 014°22'0 0.0
2015-Mar-21 10:33N 67°17' E 014°22'0 0.2
2015-Mar-21 09:33N 67°17' E 014°23'0 0.2
2015-Mar-21 08:33N 67°17' E 014°22'0 0.0
2015-Mar-21 07:33N 67°17' E 014°22'0 0.0
2015-Mar-21 06:32N 67°17' E 014°22'0 0.0
2015-Mar-21 05:33N 67°17' E 014°22'0 0.0
2015-Mar-21 04:33N 67°17' E 014°22'0 0.0
2015-Mar-21 03:33N 67°17' E 014°22'0 0.0
2015-Mar-21 02:33N 67°17' E 014°22'0 0.0
2015-Mar-21 01:33N 67°17' E 014°22'0 0.0
2015-Mar-21 00:33N 67°17' E 014°22'0 0.0
2015-Mar-20 23:33N 67°17' E 014°22'1 0.6
2015-Mar-20 21:33N 67°16' E 014°20'1 1.2
2015-Mar-20 20:33N 67°17' E 014°22'1814.9
2015-Mar-20 19:21N 67°33' E 014°42'2125.5
2015-Mar-20 18:31N 67°55' E 014°44'2020.6
2015-Mar-20 17:33N 68°14' E 014°35'0 0.0
2015-Mar-20 16:33N 68°14' E 014°34'0 0.0
2015-Mar-20 15:33N 68°14' E 014°35'  

Dump ship's entire track history